Observation data for Northwest Lubbock on 10/14/2019      Previous  Date       Current Mesonet Observations  Soil Data  Daily Summary Page  Observations in Plain Language
KLBW 140500Z 21001KT 13/02 A2998 RMK A01 T01280019  RH  048%=      5-min Rain = 0
KLBW 140505Z 20001KT 13/03 A2998 RMK A01 T01270025  RH  051%=      5-min Rain = 0
KLBW 140510Z 19000KT 13/03 A2998 RMK A01 T01250026  RH  052%=      5-min Rain = 0
KLBW 140515Z 33002KT 13/02 A2998 RMK A01 T01270018  RH  048%=      5-min Rain = 0
KLBW 140520Z 23001KT 14/01 A2998 RMK A01 T01410012  RH  042%=      5-min Rain = 0
KLBW 140525Z 19001KT 14/01 A2998 RMK A01 T01430013  RH  042%=      5-min Rain = 0
KLBW 140530Z 19001KT 14/01 A2998 RMK A01 T01390011  RH  042%=      5-min Rain = 0
KLBW 140535Z 19002KT 13/01 A2998 RMK A01 T01340010  RH  043%=      5-min Rain = 0
KLBW 140540Z 17008KT 14/01 A2999 RMK A01 T01360011  RH  043%=      5-min Rain = 0
KLBW 140545Z 16006KT 15/01 A2999 RMK A01 T01450014  RH  041%=      5-min Rain = 0
KLBW 140550Z 16006KT 15/01 A2999 RMK A01 T01490013  RH  040%=      5-min Rain = 0
KLBW 140555Z 17005KT 15/01 A2998 RMK A01 T01490013  RH  040%=      5-min Rain = 0
KLBW 140600Z 17005KT 15/01 A2998 RMK A01 T01490012  RH  040%=      5-min Rain = 0
KLBW 140605Z 19004KT 15/01 A2998 RMK A01 T01470011  RH  040%=      5-min Rain = 0
KLBW 140610Z 20004KT 14/01 A2998 RMK A01 T01440013  RH  041%=      5-min Rain = 0
KLBW 140615Z 24002KT 14/01 A2998 RMK A01 T01400014  RH  043%=      5-min Rain = 0
KLBW 140620Z 25002KT 14/01 A2998 RMK A01 T01360014  RH  044%=      5-min Rain = 0
KLBW 140625Z 25002KT 13/02 A2998 RMK A01 T01330015  RH  045%=      5-min Rain = 0
KLBW 140630Z 20002KT 13/02 A2998 RMK A01 T01310015  RH  046%=      5-min Rain = 0
KLBW 140635Z 19004KT 13/01 A2998 RMK A01 T01330013  RH  045%=      5-min Rain = 0
KLBW 140640Z 20005KT 14/02 A2998 RMK A01 T01410015  RH  043%=      5-min Rain = 0
KLBW 140645Z 20004KT 14/02 A2998 RMK A01 T01440016  RH  042%=      5-min Rain = 0
KLBW 140650Z 20005KT 14/02 A2998 RMK A01 T01440016  RH  042%=      5-min Rain = 0
KLBW 140655Z 20006KT 15/02 A2998 RMK A01 T01460017  RH  042%=      5-min Rain = 0
KLBW 140700Z 20006KT 15/02 A2998 RMK A01 T01510019  RH  041%=      5-min Rain = 0
KLBW 140705Z 20005KT 16/02 A2998 RMK A01 T01550018  RH  040%=      5-min Rain = 0
KLBW 140710Z 20005KT 16/02 A2998 RMK A01 T01550018  RH  040%=      5-min Rain = 0
KLBW 140715Z 20005KT 15/02 A2998 RMK A01 T01540018  RH  040%=      5-min Rain = 0
KLBW 140720Z 20006KT 15/02 A2998 RMK A01 T01540020  RH  041%=      5-min Rain = 0
KLBW 140725Z 20006KT 16/02 A2998 RMK A01 T01570023  RH  041%=      5-min Rain = 0
KLBW 140730Z 20006KT 16/03 A2998 RMK A01 T01590025  RH  041%=      5-min Rain = 0
KLBW 140735Z 21006KT 16/03 A2998 RMK A01 T01600027  RH  041%=      5-min Rain = 0
KLBW 140740Z 22006KT 16/03 A2998 RMK A01 T01610030  RH  042%=      5-min Rain = 0
KLBW 140745Z 22006KT 16/03 A2998 RMK A01 T01590030  RH  043%=      5-min Rain = 0
KLBW 140750Z 22006KT 16/03 A2998 RMK A01 T01600030  RH  042%=      5-min Rain = 0
KLBW 140755Z 22006KT 16/03 A2998 RMK A01 T01600029  RH  042%=      5-min Rain = 0
KLBW 140800Z 22006KT 16/03 A2998 RMK A01 T01610029  RH  042%=      5-min Rain = 0
KLBW 140805Z 23006KT 17/03 A2998 RMK A01 T01650028  RH  040%=      5-min Rain = 0
KLBW 140810Z 23007KT 17/03 A2997 RMK A01 T01670026  RH  039%=      5-min Rain = 0
KLBW 140815Z 23006KT 17/02 A2997 RMK A01 T01690024  RH  038%=      5-min Rain = 0
KLBW 140820Z 23007KT 17/02 A2997 RMK A01 T01690022  RH  038%=      5-min Rain = 0
KLBW 140825Z 24006KT 17/02 A2997 RMK A01 T01680021  RH  038%=      5-min Rain = 0
KLBW 140830Z 23007KT 17/02 A2997 RMK A01 T01670020  RH  038%=      5-min Rain = 0
KLBW 140835Z 23006KT 17/02 A2997 RMK A01 T01650018  RH  038%=      5-min Rain = 0
KLBW 140840Z 23006KT 16/02 A2997 RMK A01 T01630017  RH  038%=      5-min Rain = 0
KLBW 140845Z 24005KT 16/02 A2997 RMK A01 T01620016  RH  038%=      5-min Rain = 0
KLBW 140850Z 24004KT 16/02 A2996 RMK A01 T01610016  RH  038%=      5-min Rain = 0
KLBW 140855Z 26004KT 16/02 A2996 RMK A01 T01590016  RH  038%=      5-min Rain = 0
KLBW 140900Z 27003KT 16/02 A2997 RMK A01 T01570017  RH  039%=      5-min Rain = 0
KLBW 140905Z 28004KT 15/02 A2997 RMK A01 T01530019  RH  041%=      5-min Rain = 0
KLBW 140910Z 28003KT 15/02 A2997 RMK A01 T01500019  RH  042%=      5-min Rain = 0
KLBW 140915Z 27003KT 15/02 A2997 RMK A01 T01480019  RH  042%=      5-min Rain = 0
KLBW 140920Z 28003KT 15/02 A2997 RMK A01 T01450020  RH  044%=      5-min Rain = 0
KLBW 140925Z 28002KT 14/02 A2997 RMK A01 T01410020  RH  045%=      5-min Rain = 0
KLBW 140930Z 35000KT 14/02 A2997 RMK A01 T01380022  RH  046%=      5-min Rain = 0
KLBW 140935Z 00001KT 14/03 A2997 RMK A01 T01360028  RH  049%=      5-min Rain = 0
KLBW 140940Z 00000KT 13/03 A2997 RMK A01 T01330028  RH  050%=      5-min Rain = 0
KLBW 140945Z 33000KT 13/03 A2997 RMK A01 T01300029  RH  051%=      5-min Rain = 0
KLBW 140950Z 23001KT 13/03 A2996 RMK A01 T01280027  RH  051%=      5-min Rain = 0
KLBW 140955Z 24002KT 13/03 A2996 RMK A01 T01260029  RH  052%=      5-min Rain = 0
KLBW 141000Z 24003KT 13/02 A2997 RMK A01 T01290023  RH  049%=      5-min Rain = 0
KLBW 141005Z 24004KT 13/02 A2997 RMK A01 T01340024  RH  048%=      5-min Rain = 0
KLBW 141010Z 25004KT 13/03 A2997 RMK A01 T01340027  RH  049%=      5-min Rain = 0
KLBW 141015Z 25003KT 13/03 A2997 RMK A01 T01330026  RH  049%=      5-min Rain = 0
KLBW 141020Z 25003KT 13/03 A2997 RMK A01 T01330025  RH  049%=      5-min Rain = 0
KLBW 141025Z 25004KT 13/03 A2997 RMK A01 T01340025  RH  049%=      5-min Rain = 0
KLBW 141030Z 25004KT 14/02 A2997 RMK A01 T01350023  RH  047%=      5-min Rain = 0
KLBW 141035Z 25004KT 14/02 A2997 RMK A01 T01350024  RH  048%=      5-min Rain = 0
KLBW 141040Z 26003KT 13/03 A2997 RMK A01 T01330026  RH  049%=      5-min Rain = 0
KLBW 141045Z 26003KT 13/03 A2997 RMK A01 T01300027  RH  050%=      5-min Rain = 0
KLBW 141050Z 26002KT 13/03 A2997 RMK A01 T01280026  RH  051%=      5-min Rain = 0
KLBW 141055Z 26002KT 13/03 A2997 RMK A01 T01260025  RH  051%=      5-min Rain = 0
KLBW 141100Z 26001KT 12/03 A2997 RMK A01 T01240026  RH  052%=      5-min Rain = 0
KLBW 141105Z 24000KT 12/03 A2997 RMK A01 T01240027  RH  052%=      5-min Rain = 0
KLBW 141110Z 25000KT 12/03 A2997 RMK A01 T01240028  RH  053%=      5-min Rain = 0
KLBW 141115Z 25001KT 12/03 A2997 RMK A01 T01220031  RH  055%=      5-min Rain = 0
KLBW 141120Z 23002KT 12/03 A2998 RMK A01 T01200030  RH  055%=      5-min Rain = 0
KLBW 141125Z 24002KT 12/03 A2998 RMK A01 T01190033  RH  057%=      5-min Rain = 0
KLBW 141130Z 25003KT 12/03 A2998 RMK A01 T01230030  RH  054%=      5-min Rain = 0
KLBW 141135Z 26004KT 13/03 A2998 RMK A01 T01310032  RH  052%=      5-min Rain = 0
KLBW 141140Z 26003KT 13/04 A2998 RMK A01 T01310036  RH  054%=      5-min Rain = 0
KLBW 141145Z 27003KT 13/04 A2998 RMK A01 T01290038  RH  055%=      5-min Rain = 0
KLBW 141150Z 29003KT 13/04 A2998 RMK A01 T01290039  RH  055%=      5-min Rain = 0
KLBW 141155Z 33005KT 13/04 A2999 RMK A01 T01320040  RH  055%=      5-min Rain = 0
KLBW 141200Z 32004KT 13/04 A2999 RMK A01 T01330040  RH  054%=      5-min Rain = 0
KLBW 141205Z 32005KT 13/04 A2999 RMK A01 T01290040  RH  056%=      5-min Rain = 0
KLBW 141210Z 32004KT 13/04 A2999 RMK A01 T01250039  RH  057%=      5-min Rain = 0
KLBW 141215Z 29002KT 12/04 A2999 RMK A01 T01230039  RH  058%=      5-min Rain = 0
KLBW 141220Z 31004KT 12/04 A2999 RMK A01 T01210040  RH  059%=      5-min Rain = 0
KLBW 141225Z 32002KT 12/04 A2999 RMK A01 T01220041  RH  059%=      5-min Rain = 0
KLBW 141230Z 32003KT 12/04 A30 RMK A01 T01210041  RH  059%=      5-min Rain = 0
KLBW 141235Z 33002KT 12/04 A30 RMK A01 T01220040  RH  058%=      5-min Rain = 0
KLBW 141240Z 33002KT 12/04 A30 RMK A01 T01220040  RH  058%=      5-min Rain = 0
KLBW 141245Z 33002KT 12/04 A30 RMK A01 T01220039  RH  058%=      5-min Rain = 0
KLBW 141250Z 31001KT 12/04 A30 RMK A01 T01220039  RH  058%=      5-min Rain = 0
KLBW 141255Z 30002KT 12/04 A30 RMK A01 T01200040  RH  059%=      5-min Rain = 0
KLBW 141300Z 31002KT 12/04 A30 RMK A01 T01180039  RH  059%=      5-min Rain = 0
KLBW 141305Z 31003KT 12/04 A30 RMK A01 T01180040  RH  060%=      5-min Rain = 0
KLBW 141310Z 32003KT 12/04 A30 RMK A01 T01190040  RH  060%=      5-min Rain = 0
KLBW 141315Z 32003KT 12/04 A30 RMK A01 T01190041  RH  060%=      5-min Rain = 0
KLBW 141320Z 31003KT 12/04 A30 RMK A01 T01200042  RH  060%=      5-min Rain = 0
KLBW 141325Z 31002KT 12/04 A30 RMK A01 T01210044  RH  060%=      5-min Rain = 0
KLBW 141330Z 27001KT 12/04 A30 RMK A01 T01210044  RH  060%=      5-min Rain = 0
KLBW 141335Z 25002KT 12/05 A3001 RMK A01 T01210047  RH  062%=      5-min Rain = 0
KLBW 141340Z 25001KT 12/05 A30 RMK A01 T01230051  RH  063%=      5-min Rain = 0
KLBW 141345Z 30001KT 14/05 A3001 RMK A01 T01350054  RH  059%=      5-min Rain = 0
KLBW 141350Z 31002KT 15/05 A3001 RMK A01 T01470050  RH  053%=      5-min Rain = 0
KLBW 141355Z 32003KT 15/05 A3001 RMK A01 T01540048  RH  050%=      5-min Rain = 0
KLBW 141400Z 32004KT 16/05 A3001 RMK A01 T01550047  RH  049%=      5-min Rain = 0
KLBW 141405Z 32004KT 15/05 A3001 RMK A01 T01510047  RH  051%=      5-min Rain = 0
KLBW 141410Z 31002KT 15/05 A3001 RMK A01 T01490048  RH  052%=      5-min Rain = 0
KLBW 141415Z 29001KT 15/05 A3001 RMK A01 T01510049  RH  051%=      5-min Rain = 0
KLBW 141420Z 27002KT 16/05 A3001 RMK A01 T01590050  RH  049%=      5-min Rain = 0
KLBW 141425Z 29003KT 16/05 A3001 RMK A01 T01610049  RH  048%=      5-min Rain = 0
KLBW 141430Z 31004KT 16/05 A3002 RMK A01 T01600050  RH  049%=      5-min Rain = 0
KLBW 141435Z 32003KT 16/05 A3002 RMK A01 T01600052  RH  050%=      5-min Rain = 0
KLBW 141440Z 31003KT 16/05 A3002 RMK A01 T01610053  RH  050%=      5-min Rain = 0
KLBW 141445Z 30003KT 17/06 A3002 RMK A01 T01670056  RH  049%=      5-min Rain = 0
KLBW 141450Z 24002KT 17/05 A3002 RMK A01 T01670053  RH  048%=      5-min Rain = 0
KLBW 141455Z 25002KT 17/05 A3003 RMK A01 T01650054  RH  049%=      5-min Rain = 0
KLBW 141500Z 19003KT 17/06 A3003 RMK A01 T01680058  RH  049%=      5-min Rain = 0
KLBW 141505Z 24002KT 17/06 A3003 RMK A01 T01710059  RH  049%=      5-min Rain = 0
KLBW 141510Z 28002KT 17/06 A3003 RMK A01 T01740061  RH  048%=      5-min Rain = 0
KLBW 141515Z 23002KT 17/06 A3003 RMK A01 T01740060  RH  048%=      5-min Rain = 0
KLBW 141520Z 28003KT 18/06 A3003 RMK A01 T01750061  RH  048%=      5-min Rain = 0
KLBW 141525Z 27003KT 18/06 A3003 RMK A01 T01760061  RH  048%=      5-min Rain = 0
KLBW 141530Z 26003KT 18/06 A3003 RMK A01 T01800063  RH  047%=      5-min Rain = 0
KLBW 141535Z 28002KT 19/06 A3003 RMK A01 T01850063  RH  046%=      5-min Rain = 0
KLBW 141540Z 28003KT 19/06 A3003 RMK A01 T01850064  RH  046%=      5-min Rain = 0
KLBW 141545Z 27003KT 19/07 A3003 RMK A01 T01880065  RH  046%=      5-min Rain = 0
KLBW 141550Z 23003KT 19/06 A3003 RMK A01 T01910062  RH  044%=      5-min Rain = 0
KLBW 141555Z 23003KT 19/06 A3003 RMK A01 T01940062  RH  043%=      5-min Rain = 0
KLBW 141600Z 28002KT 20/06 A3002 RMK A01 T01950062  RH  043%=      5-min Rain = 0
KLBW 141605Z 23003KT 20/06 A3002 RMK A01 T01960062  RH  043%=      5-min Rain = 0
KLBW 141610Z 17004KT 20/07 A3002 RMK A01 T02000066  RH  043%=      5-min Rain = 0
KLBW 141615Z 18004KT 20/07 A3002 RMK A01 T02030065  RH  042%=      5-min Rain = 0
KLBW 141620Z 18004KT 21/07 A3002 RMK A01 T02060067  RH  042%=      5-min Rain = 0
KLBW 141625Z 18004KT 21/07 A3002 RMK A01 T02070067  RH  041%=      5-min Rain = 0
KLBW 141630Z 18004KT 21/07 A3002 RMK A01 T02120068  RH  040%=      5-min Rain = 0
KLBW 141635Z 20003KT 22/07 A3002 RMK A01 T02170068  RH  039%=      5-min Rain = 0
KLBW 141640Z 18003KT 23/07 A3002 RMK A01 T02270070  RH  037%=      5-min Rain = 0
KLBW 141645Z 19003KT 23/07 A3002 RMK A01 T02310071  RH  037%=      5-min Rain = 0
KLBW 141650Z 17005KT 23/07 A3002 RMK A01 T02300072  RH  037%=      5-min Rain = 0
KLBW 141655Z 16006KT 24/07 A3001 RMK A01 T02360074  RH  036%=      5-min Rain = 0
KLBW 141700Z 14006KT 23/07 A3001 RMK A01 T02340074  RH  037%=      5-min Rain = 0
KLBW 141705Z 15005KT 24/07 A3001 RMK A01 T02410072  RH  035%=      5-min Rain = 0
KLBW 141710Z 18005KT 23/07 A3001 RMK A01 T02300071  RH  037%=      5-min Rain = 0
KLBW 141715Z 19005KT 23/07 A3001 RMK A01 T02310072  RH  037%=      5-min Rain = 0
KLBW 141720Z 19005KT 23/07 A3001 RMK A01 T02330073  RH  037%=      5-min Rain = 0
KLBW 141725Z 20005KT 24/08 A3001 RMK A01 T02410075  RH  035%=      5-min Rain = 0
KLBW 141730Z 19006KT 24/07 A3001 RMK A01 T02370074  RH  036%=      5-min Rain = 0
KLBW 141735Z 20007KT 24/07 A30 RMK A01 T02440071  RH  034%=      5-min Rain = 0
KLBW 141740Z 19007KT 25/07 A30 RMK A01 T02470068  RH  033%=      5-min Rain = 0
KLBW 141745Z 18010KT 25/07 A30 RMK A01 T02480073  RH  033%=      5-min Rain = 0
KLBW 141750Z 17010KT 24/07 A30 RMK A01 T02440071  RH  034%=      5-min Rain = 0
KLBW 141755Z 16008KT 24/07 A2999 RMK A01 T02410067  RH  034%=      5-min Rain = 0
KLBW 141800Z 17007KT 25/07 A2999 RMK A01 T02520068  RH  032%=      5-min Rain = 0
KLBW 141805Z 17008KT 25/07 A2999 RMK A01 T02490065  RH  032%=      5-min Rain = 0
KLBW 141810Z 18007KT 25/06 A2999 RMK A01 T02500060  RH  030%=      5-min Rain = 0
KLBW 141815Z 17008KT 24/06 A2999 RMK A01 T02440063  RH  032%=      5-min Rain = 0
KLBW 141820Z 20008KT 25/07 A2999 RMK A01 T02520069  RH  032%=      5-min Rain = 0
KLBW 141825Z 18008KT 25/07 A2998 RMK A01 T02520067  RH  031%=      5-min Rain = 0
KLBW 141830Z 18009KT 25/06 A2998 RMK A01 T02540061  RH  030%=      5-min Rain = 0
KLBW 141835Z 19008KT 25/06 A2998 RMK A01 T02520061  RH  030%=      5-min Rain = 0
KLBW 141840Z 19009KT 26/06 A2998 RMK A01 T02550058  RH  029%=      5-min Rain = 0
KLBW 141845Z 18007KT 26/06 A2997 RMK A01 T02560055  RH  028%=      5-min Rain = 0
KLBW 141850Z 20007KT 26/05 A2997 RMK A01 T02550053  RH  028%=      5-min Rain = 0
KLBW 141855Z 20007KT 25/06 A2997 RMK A01 T02530064  RH  031%=      5-min Rain = 0
KLBW 141900Z 20006KT 26/07 A2996 RMK A01 T02570070  RH  031%=      5-min Rain = 0
KLBW 141905Z 19007KT 27/07 A2996 RMK A01 T02690069  RH  029%=      5-min Rain = 0
KLBW 141910Z 19008KT 26/07 A2996 RMK A01 T02610065  RH  029%=      5-min Rain = 0
KLBW 141915Z 19009KT 26/06 A2996 RMK A01 T02600058  RH  028%=      5-min Rain = 0
KLBW 141920Z 20009KT 27/06 A2996 RMK A01 T02660064  RH  028%=      5-min Rain = 0
KLBW 141925Z 20006KT 27/07 A2995 RMK A01 T02670068  RH  029%=      5-min Rain = 0
KLBW 141930Z 22005G11KT 28/08 A2995 RMK A01 T02750075  RH  029%=      5-min Rain = 0
KLBW 141935Z 22008G13KT 28/08 A2994 RMK A01 T02770078  RH  029%=      5-min Rain = 0
KLBW 141940Z 21008KT 28/08 A2994 RMK A01 T02790077  RH  029%=      5-min Rain = 0
KLBW 141945Z 20009G14KT 28/08 A2994 RMK A01 T02820077  RH  028%=      5-min Rain = 0
KLBW 141950Z 20009KT 28/08 A2994 RMK A01 T02800081  RH  029%=      5-min Rain = 0
KLBW 141955Z 19009KT 29/08 A2994 RMK A01 T02860082  RH  029%=      5-min Rain = 0
KLBW 142000Z 19010KT 29/08 A2994 RMK A01 T02860081  RH  028%=      5-min Rain = 0
KLBW 142005Z 20009KT 29/08 A2993 RMK A01 T02850078  RH  028%=      5-min Rain = 0
KLBW 142010Z 19008KT 29/08 A2993 RMK A01 T02850076  RH  027%=      5-min Rain = 0
KLBW 142015Z 19009G14KT 29/08 A2993 RMK A01 T02890075  RH  027%=      5-min Rain = 0
KLBW 142020Z 19009KT 29/07 A2992 RMK A01 T02900074  RH  026%=      5-min Rain = 0
KLBW 142025Z 19010G15KT 29/08 A2992 RMK A01 T02860077  RH  028%=      5-min Rain = 0
KLBW 142030Z 19009G14KT 29/08 A2992 RMK A01 T02880079  RH  028%=      5-min Rain = 0
KLBW 142035Z 20008KT 29/08 A2992 RMK A01 T02890075  RH  027%=      5-min Rain = 0
KLBW 142040Z 19009G14KT 29/07 A2991 RMK A01 T02880074  RH  027%=      5-min Rain = 0
KLBW 142045Z 19008G14KT 29/07 A2991 RMK A01 T02890073  RH  026%=      5-min Rain = 0
KLBW 142050Z 19008G14KT 29/07 A2991 RMK A01 T02890070  RH  026%=      5-min Rain = 0
KLBW 142055Z 18008KT 29/07 A2991 RMK A01 T02940072  RH  025%=      5-min Rain = 0
KLBW 142100Z 18010KT 29/07 A2991 RMK A01 T02940072  RH  025%=      5-min Rain = 0
KLBW 142105Z 19009KT 29/07 A2991 RMK A01 T02910070  RH  025%=      5-min Rain = 0
KLBW 142110Z 19009G14KT 29/07 A2991 RMK A01 T02940073  RH  026%=      5-min Rain = 0
KLBW 142115Z 20009G15KT 29/07 A2991 RMK A01 T02930071  RH  025%=      5-min Rain = 0
KLBW 142120Z 19009G14KT 29/07 A2991 RMK A01 T02910070  RH  026%=      5-min Rain = 0
KLBW 142125Z 17008G13KT 29/07 A2991 RMK A01 T02900070  RH  026%=      5-min Rain = 0
KLBW 142130Z 19008KT 29/07 A299 RMK A01 T02940070  RH  025%=      5-min Rain = 0
KLBW 142135Z 20008KT 29/07 A299 RMK A01 T02910068  RH  025%=      5-min Rain = 0
KLBW 142140Z 19008G13KT 30/07 A299 RMK A01 T02950072  RH  025%=      5-min Rain = 0
KLBW 142145Z 21008KT 29/07 A299 RMK A01 T02920067  RH  025%=      5-min Rain = 0
KLBW 142150Z 19009KT 29/07 A299 RMK A01 T02910068  RH  025%=      5-min Rain = 0
KLBW 142155Z 19007KT 29/07 A299 RMK A01 T02940069  RH  025%=      5-min Rain = 0
KLBW 142200Z 20006KT 29/07 A299 RMK A01 T02930073  RH  026%=      5-min Rain = 0
KLBW 142205Z 21008G13KT 29/08 A299 RMK A01 T02940075  RH  026%=      5-min Rain = 0
KLBW 142210Z 21009KT 29/07 A299 RMK A01 T02910073  RH  026%=      5-min Rain = 0
KLBW 142215Z 20007KT 29/08 A299 RMK A01 T02920077  RH  027%=      5-min Rain = 0
KLBW 142220Z 18009KT 29/08 A299 RMK A01 T02920081  RH  027%=      5-min Rain = 0
KLBW 142225Z 22010KT 29/08 A299 RMK A01 T02890084  RH  029%=      5-min Rain = 0
KLBW 142230Z 20007G13KT 29/08 A299 RMK A01 T02880083  RH  029%=      5-min Rain = 0
KLBW 142235Z 20006KT 29/08 A299 RMK A01 T02890083  RH  028%=      5-min Rain = 0
KLBW 142240Z 19007KT 29/08 A299 RMK A01 T02880084  RH  029%=      5-min Rain = 0
KLBW 142245Z 21009KT 29/09 A299 RMK A01 T02870086  RH  029%=      5-min Rain = 0
KLBW 142250Z 20009G14KT 28/09 A299 RMK A01 T02840089  RH  030%=      5-min Rain = 0
KLBW 142255Z 19008G13KT 28/09 A299 RMK A01 T02830090  RH  031%=      5-min Rain = 0
KLBW 142300Z 19009KT 28/09 A299 RMK A01 T02820091  RH  031%=      5-min Rain = 0
KLBW 142305Z 18010KT 28/09 A2989 RMK A01 T02820092  RH  032%=      5-min Rain = 0
KLBW 142310Z 20009G14KT 28/09 A2989 RMK A01 T02800090  RH  031%=      5-min Rain = 0
KLBW 142315Z 20007KT 28/09 A299 RMK A01 T02800091  RH  032%=      5-min Rain = 0
KLBW 142320Z 20008KT 28/09 A299 RMK A01 T02780093  RH  032%=      5-min Rain = 0
KLBW 142325Z 20008KT 28/10 A299 RMK A01 T02760098  RH  034%=      5-min Rain = 0
KLBW 142330Z 20007KT 28/10 A299 RMK A01 T02750100  RH  035%=      5-min Rain = 0
KLBW 142335Z 21008KT 27/10 A299 RMK A01 T02730101  RH  035%=      5-min Rain = 0
KLBW 142340Z 20007KT 27/10 A299 RMK A01 T02700104  RH  036%=      5-min Rain = 0
KLBW 142345Z 19007G12KT 27/11 A299 RMK A01 T02680108  RH  038%=      5-min Rain = 0
KLBW 142350Z 19008KT 27/11 A299 RMK A01 T02660111  RH  039%=      5-min Rain = 0
KLBW 142355Z 19006KT 26/11 A299 RMK A01 T02630112  RH  040%=      5-min Rain = 0
KLBW 150000Z 19008KT 26/11 A299 RMK A01 T02610112  RH  041%=      5-min Rain = 0
KLBW 150005Z 19008KT 26/11 A299 RMK A01 T02590112  RH  041%=      5-min Rain = 0
KLBW 150010Z 19006KT 26/11 A299 RMK A01 T02550113  RH  042%=      5-min Rain = 0
KLBW 150015Z 19008KT 25/11 A299 RMK A01 T02540113  RH  043%=      5-min Rain = 0
KLBW 150020Z 18007KT 25/11 A299 RMK A01 T02510114  RH  044%=      5-min Rain = 0
KLBW 150025Z 18006KT 25/12 A299 RMK A01 T02490115  RH  045%=      5-min Rain = 0
KLBW 150030Z 18007KT 25/12 A299 RMK A01 T02470116  RH  046%=      5-min Rain = 0
KLBW 150035Z 18008KT 25/12 A2991 RMK A01 T02460118  RH  046%=      5-min Rain = 0
KLBW 150040Z 18008KT 25/12 A2991 RMK A01 T02460120  RH  047%=      5-min Rain = 0
KLBW 150045Z 18008G13KT 24/12 A2991 RMK A01 T02440121  RH  048%=      5-min Rain = 0
KLBW 150050Z 18008KT 24/12 A2991 RMK A01 T02430122  RH  048%=      5-min Rain = 0
KLBW 150055Z 19007KT 24/12 A2991 RMK A01 T02410122  RH  049%=      5-min Rain = 0
KLBW 150100Z 19007KT 24/12 A2992 RMK A01 T02400122  RH  049%=      5-min Rain = 0
KLBW 150105Z 19008KT 24/12 A2992 RMK A01 T02390122  RH  050%=      5-min Rain = 0
KLBW 150110Z 18007KT 24/12 A2992 RMK A01 T02380122  RH  050%=      5-min Rain = 0
KLBW 150115Z 19007KT 24/12 A2992 RMK A01 T02380122  RH  050%=      5-min Rain = 0
KLBW 150120Z 18008G13KT 24/12 A2992 RMK A01 T02370122  RH  050%=      5-min Rain = 0
KLBW 150125Z 18007KT 24/12 A2992 RMK A01 T02350122  RH  051%=      5-min Rain = 0
KLBW 150130Z 19007KT 23/12 A2992 RMK A01 T02340122  RH  051%=      5-min Rain = 0
KLBW 150135Z 19007KT 23/12 A2992 RMK A01 T02330123  RH  052%=      5-min Rain = 0
KLBW 150140Z 19008KT 23/12 A2993 RMK A01 T02320123  RH  052%=      5-min Rain = 0
KLBW 150145Z 20009KT 23/12 A2993 RMK A01 T02330123  RH  052%=      5-min Rain = 0
KLBW 150150Z 19009KT 23/12 A2993 RMK A01 T02340124  RH  052%=      5-min Rain = 0
KLBW 150155Z 20009G15KT 23/12 A2993 RMK A01 T02320124  RH  052%=      5-min Rain = 0
KLBW 150200Z 20010KT 23/12 A2993 RMK A01 T02320124  RH  053%=      5-min Rain = 0
KLBW 150205Z 20008KT 23/12 A2993 RMK A01 T02300124  RH  053%=      5-min Rain = 0
KLBW 150210Z 20009KT 23/13 A2993 RMK A01 T02300125  RH  054%=      5-min Rain = 0
KLBW 150215Z 21008KT 23/13 A2993 RMK A01 T02270125  RH  054%=      5-min Rain = 0
KLBW 150220Z 21008KT 23/13 A2994 RMK A01 T02250125  RH  055%=      5-min Rain = 0
KLBW 150225Z 21008KT 22/13 A2994 RMK A01 T02240125  RH  056%=      5-min Rain = 0
KLBW 150230Z 21009KT 22/13 A2994 RMK A01 T02230126  RH  056%=      5-min Rain = 0
KLBW 150235Z 20009G14KT 22/13 A2994 RMK A01 T02240125  RH  056%=      5-min Rain = 0
KLBW 150240Z 20009KT 22/13 A2994 RMK A01 T02230125  RH  056%=      5-min Rain = 0
KLBW 150245Z 20008KT 22/12 A2994 RMK A01 T02200124  RH  057%=      5-min Rain = 0
KLBW 150250Z 20009G14KT 22/12 A2994 RMK A01 T02200123  RH  056%=      5-min Rain = 0
KLBW 150255Z 20008G13KT 22/12 A2994 RMK A01 T02190122  RH  056%=      5-min Rain = 0
KLBW 150300Z 21008KT 22/12 A2994 RMK A01 T02170121  RH  056%=      5-min Rain = 0
KLBW 150305Z 21009KT 22/12 A2994 RMK A01 T02160120  RH  056%=      5-min Rain = 0
KLBW 150310Z 21009KT 22/12 A2995 RMK A01 T02160118  RH  056%=      5-min Rain = 0
KLBW 150315Z 21008KT 22/12 A2995 RMK A01 T02150115  RH  055%=      5-min Rain = 0
KLBW 150320Z 21008KT 21/12 A2995 RMK A01 T02130115  RH  055%=      5-min Rain = 0
KLBW 150325Z 22007KT 21/11 A2995 RMK A01 T02110114  RH  056%=      5-min Rain = 0
KLBW 150330Z 21007KT 21/11 A2995 RMK A01 T02080113  RH  057%=      5-min Rain = 0
KLBW 150335Z 21007KT 21/11 A2995 RMK A01 T02060113  RH  057%=      5-min Rain = 0
KLBW 150340Z 21007KT 20/11 A2995 RMK A01 T02040113  RH  058%=      5-min Rain = 0
KLBW 150345Z 21007KT 20/11 A2996 RMK A01 T02020113  RH  059%=      5-min Rain = 0
KLBW 150350Z 21007KT 20/11 A2996 RMK A01 T02000113  RH  060%=      5-min Rain = 0
KLBW 150355Z 21006KT 20/11 A2996 RMK A01 T01980113  RH  060%=      5-min Rain = 0
KLBW 150400Z 21006KT 19/11 A2996 RMK A01 T01940113  RH  061%=      5-min Rain = 0
KLBW 150405Z 20007KT 19/11 A2996 RMK A01 T01930113  RH  062%=      5-min Rain = 0
KLBW 150410Z 20006KT 19/11 A2996 RMK A01 T01910114  RH  063%=      5-min Rain = 0
KLBW 150415Z 21005KT 19/11 A2996 RMK A01 T01880114  RH  064%=      5-min Rain = 0
KLBW 150420Z 21006KT 19/12 A2996 RMK A01 T01860115  RH  066%=      5-min Rain = 0
KLBW 150425Z 21006KT 19/12 A2996 RMK A01 T01860116  RH  066%=      5-min Rain = 0
KLBW 150430Z 20007KT 19/12 A2996 RMK A01 T01860116  RH  066%=      5-min Rain = 0
KLBW 150435Z 21006KT 19/12 A2996 RMK A01 T01860116  RH  066%=      5-min Rain = 0
KLBW 150440Z 21006KT 19/12 A2996 RMK A01 T01870115  RH  065%=      5-min Rain = 0
KLBW 150445Z 20006KT 19/12 A2996 RMK A01 T01860115  RH  065%=      5-min Rain = 0
KLBW 150450Z 20006KT 19/11 A2996 RMK A01 T01860114  RH  065%=      5-min Rain = 0
KLBW 150455Z 21005KT 19/11 A2996 RMK A01 T01850114  RH  065%=      5-min Rain = 0

Page generated in 0.0131 seconds.